createdAt,value
2022-08-22T00:03:10.013Z,16.93
2022-08-22T00:08:20.708Z,16.67
2022-08-22T00:14:01.390Z,16.63
2022-08-22T00:19:25.018Z,16.57
2022-08-22T00:24:56.916Z,16.52
2022-08-22T00:30:29.041Z,16.45
2022-08-22T00:36:00.738Z,16.39
2022-08-22T00:41:32.768Z,16.33
2022-08-22T00:47:05.111Z,16.27
2022-08-22T00:52:37.446Z,16.22
2022-08-22T00:58:09.446Z,16.15
2022-08-22T01:03:41.111Z,16.10
2022-08-22T01:09:13.080Z,16.05
2022-08-22T01:14:44.814Z,16.00
2022-08-22T01:20:16.696Z,15.95
2022-08-22T01:25:48.462Z,15.89
2022-08-22T01:31:20.527Z,15.83
2022-08-22T01:36:52.552Z,15.77
2022-08-22T01:42:24.624Z,15.72
2022-08-22T01:47:56.518Z,15.69
2022-08-22T01:53:28.657Z,15.66
2022-08-22T01:59:01.644Z,15.60
2022-08-22T02:04:32.447Z,15.53
2022-08-22T02:10:04.347Z,15.47
2022-08-22T02:15:36.092Z,15.42
2022-08-22T02:21:08.094Z,15.37
2022-08-22T02:26:40.158Z,15.34
2022-08-22T02:32:12.191Z,15.32
2022-08-22T02:37:44.020Z,15.29
2022-08-22T02:43:15.982Z,15.25
2022-08-22T02:48:48.282Z,15.21
2022-08-22T02:54:20.081Z,15.17
2022-08-22T02:59:52.131Z,15.13
2022-08-22T03:05:23.855Z,15.10
2022-08-22T03:10:55.763Z,15.06
2022-08-22T03:16:27.338Z,15.03
2022-08-22T03:21:59.117Z,14.99
2022-08-22T03:27:33.238Z,14.95
2022-08-22T03:33:03.457Z,14.92
2022-08-22T03:38:35.847Z,14.87
2022-08-22T03:44:07.891Z,14.79
2022-08-22T03:49:39.849Z,14.71
2022-08-22T03:55:12.209Z,14.64
2022-08-22T04:00:44.413Z,14.59
2022-08-22T04:06:16.557Z,14.55
2022-08-22T04:11:48.844Z,14.51
2022-08-22T04:17:20.821Z,14.48
2022-08-22T04:22:52.917Z,14.47
2022-08-22T04:28:24.710Z,14.46
2022-08-22T04:33:56.509Z,14.45
2022-08-22T04:39:28.401Z,14.45
2022-08-22T04:45:00.861Z,14.46
2022-08-22T04:50:32.860Z,14.49
2022-08-22T05:01:36.817Z,14.59
2022-08-22T05:07:08.592Z,14.64
2022-08-22T05:12:40.959Z,14.71
2022-08-22T05:18:12.941Z,14.85
2022-08-22T05:23:44.524Z,15.14
2022-08-22T05:29:16.649Z,15.70
2022-08-22T05:40:21.349Z,17.43
2022-08-22T05:45:53.344Z,18.43
2022-08-22T05:51:25.462Z,19.41
2022-08-22T05:56:57.793Z,20.30
2022-08-22T06:02:29.952Z,21.15
2022-08-22T06:08:02.064Z,21.96
2022-08-22T06:13:34.129Z,22.66
2022-08-22T06:19:19.254Z,23.29
2022-08-22T06:24:38.501Z,23.84
2022-08-22T06:30:10.131Z,24.41
2022-08-22T06:35:41.965Z,24.66
2022-08-22T06:41:13.697Z,24.66
2022-08-22T06:46:47.944Z,24.95
2022-08-22T06:52:19.615Z,25.50
2022-08-22T06:57:51.516Z,25.78
2022-08-22T07:03:23.473Z,25.95
2022-08-22T07:08:55.568Z,26.20
2022-08-22T07:14:27.376Z,26.03
2022-08-22T07:19:59.226Z,25.62
2022-08-22T07:31:02.946Z,25.01
2022-08-22T07:36:34.613Z,24.72
2022-08-22T07:47:38.130Z,25.47
2022-08-22T07:58:41.812Z,25.78
2022-08-22T08:04:13.818Z,25.79
2022-08-22T08:09:45.596Z,25.81
2022-08-22T08:15:17.086Z,26.04
2022-08-22T08:20:48.804Z,26.32
2022-08-22T08:26:20.726Z,26.70
2022-08-22T08:31:52.636Z,26.90
2022-08-22T08:37:24.491Z,27.03
2022-08-22T08:42:56.502Z,27.14
2022-08-22T08:48:28.571Z,26.98
2022-08-22T08:54:00.498Z,26.79
2022-08-22T08:59:32.474Z,26.81
2022-08-22T09:10:36.182Z,27.17
2022-08-22T09:16:08.177Z,27.23
2022-08-22T09:21:40.370Z,27.40
2022-08-22T09:23:53.441Z,26.77
2022-08-22T09:29:23.204Z,26.82
2022-08-22T09:34:54.854Z,26.99
2022-08-22T09:45:58.483Z,27.29
2022-08-22T09:51:32.014Z,27.06
2022-08-22T10:02:34.537Z,26.52
2022-08-22T10:08:06.447Z,26.48
2022-08-22T10:13:38.394Z,26.42
2022-08-22T10:19:10.416Z,26.15
2022-08-22T10:24:44.141Z,25.93
2022-08-22T10:30:16.366Z,25.77
2022-08-22T10:35:45.876Z,25.70
2022-08-22T10:41:17.354Z,25.66
2022-08-22T10:46:49.509Z,25.49
2022-08-22T10:52:21.207Z,25.40
2022-08-22T11:03:23.549Z,25.37
2022-08-22T11:08:54.794Z,25.32
2022-08-22T11:19:58.545Z,25.37
2022-08-22T11:25:38.465Z,25.49
2022-08-22T11:31:01.859Z,25.68
2022-08-22T11:36:33.646Z,25.80
2022-08-22T11:42:05.812Z,25.85
2022-08-22T11:47:37.527Z,25.89
2022-08-22T11:53:09.390Z,25.91
2022-08-22T11:58:41.037Z,25.98
2022-08-22T12:04:12.933Z,25.92
2022-08-22T12:09:44.689Z,25.77
2022-08-22T12:23:08.330Z,24.86
2022-08-22T12:28:39.973Z,25.00
2022-08-22T12:34:11.696Z,25.09
2022-08-22T12:39:43.713Z,25.11
2022-08-22T12:45:15.385Z,25.13
2022-08-22T12:50:47.402Z,25.16
2022-08-22T13:01:48.846Z,25.34
2022-08-22T13:07:22.797Z,25.37
2022-08-22T13:12:52.904Z,25.30
2022-08-22T13:18:29.783Z,25.17
2022-08-22T13:26:31.796Z,24.40
2022-08-22T13:31:47.795Z,24.66
2022-08-22T13:42:49.460Z,24.96
2022-08-22T13:48:21.359Z,25.05
2022-08-22T13:56:15.494Z,25.17
2022-08-22T14:01:45.774Z,25.38
2022-08-22T14:07:17.469Z,25.44
2022-08-22T14:12:50.936Z,25.43
2022-08-22T14:18:21.267Z,25.40
2022-08-22T14:23:53.105Z,25.44
2022-08-22T14:29:24.974Z,25.51
2022-08-22T14:34:58.888Z,25.52
2022-08-22T14:40:28.699Z,25.37
2022-08-22T14:46:02.197Z,25.19
2022-08-22T14:51:32.405Z,24.99
2022-08-22T14:57:04.634Z,24.85
2022-08-22T15:02:36.658Z,24.84
2022-08-22T15:08:08.849Z,24.87
2022-08-22T15:13:40.703Z,24.90
2022-08-22T15:24:42.769Z,24.95
2022-08-22T15:30:18.806Z,24.92
2022-08-22T15:35:45.516Z,24.95
2022-08-22T15:41:17.507Z,24.95
2022-08-22T15:52:18.870Z,24.80
2022-08-22T15:57:50.940Z,24.65
2022-08-22T16:03:24.364Z,24.55
2022-08-22T16:08:56.315Z,24.44
2022-08-22T16:14:29.661Z,24.35
2022-08-22T16:20:00.407Z,24.26
2022-08-22T16:25:32.134Z,24.11
2022-08-22T16:31:03.583Z,23.95
2022-08-22T16:36:35.811Z,23.78
2022-08-22T16:42:07.416Z,23.66
2022-08-22T16:47:39.437Z,23.57
2022-08-22T16:53:11.089Z,23.41
2022-08-22T16:58:56.958Z,23.21
2022-08-22T17:04:14.970Z,23.03
2022-08-22T17:09:47.247Z,22.91
2022-08-22T17:15:19.403Z,22.82
2022-08-22T17:20:51.058Z,22.74
2022-08-22T17:26:23.218Z,22.70
2022-08-22T17:31:55.338Z,22.61
2022-08-22T17:37:26.924Z,22.49
2022-08-22T17:42:58.816Z,22.39
2022-08-22T17:48:30.656Z,22.29
2022-08-22T17:54:02.440Z,22.21
2022-08-22T17:59:33.830Z,22.07
2022-08-22T18:05:05.301Z,21.92
2022-08-22T18:10:37.185Z,21.77
2022-08-22T18:16:08.649Z,21.65
2022-08-22T18:21:40.556Z,21.51
2022-08-22T18:27:29.686Z,21.36
2022-08-22T18:32:43.986Z,21.23
2022-08-22T18:38:19.768Z,21.07
2022-08-22T18:43:47.719Z,20.89
2022-08-22T18:51:40.784Z,20.05
2022-08-22T18:57:12.556Z,20.19
2022-08-22T19:02:47.055Z,20.20
2022-08-22T19:08:15.622Z,20.12
2022-08-22T19:13:47.139Z,19.99
2022-08-22T19:19:18.889Z,19.86
2022-08-22T19:24:50.162Z,19.75
2022-08-22T19:30:21.640Z,19.63
2022-08-22T19:35:53.617Z,19.53
2022-08-22T19:41:25.693Z,19.44
2022-08-22T19:46:56.859Z,19.33
2022-08-22T19:52:28.236Z,19.22
2022-08-22T19:57:59.483Z,19.11
2022-08-22T20:03:30.877Z,19.01
2022-08-22T20:09:02.473Z,18.91
2022-08-22T20:14:34.290Z,18.81
2022-08-22T20:20:27.943Z,18.72
2022-08-22T20:25:42.730Z,18.61
2022-08-22T20:31:09.643Z,18.48
2022-08-22T20:36:41.079Z,18.36
2022-08-22T20:42:12.550Z,18.26
2022-08-22T20:47:48.923Z,18.20
2022-08-22T20:53:15.898Z,18.11
2022-08-22T20:58:47.233Z,18.00
2022-08-22T21:04:19.008Z,17.86
2022-08-22T21:09:50.509Z,17.73
2022-08-22T21:15:22.558Z,17.63
2022-08-22T21:20:54.312Z,17.53
2022-08-22T21:26:26.343Z,17.44
2022-08-22T21:31:59.214Z,17.38
2022-08-22T21:37:29.828Z,17.33
2022-08-22T21:43:01.716Z,17.26
2022-08-22T21:48:33.757Z,17.17
2022-08-22T21:54:17.687Z,17.09
2022-08-22T21:59:58.737Z,17.01
2022-08-22T22:05:12.400Z,16.93
2022-08-22T22:10:44.015Z,16.85
2022-08-22T22:16:16.262Z,16.77
2022-08-22T22:21:48.573Z,16.69
2022-08-22T22:27:20.549Z,16.61
2022-08-22T22:32:52.494Z,16.57
2022-08-22T22:38:24.371Z,16.54
2022-08-22T22:43:56.388Z,16.51
2022-08-22T22:49:28.197Z,16.47
2022-08-22T23:00:31.803Z,16.36
2022-08-22T23:06:03.566Z,16.27
2022-08-22T23:11:35.487Z,16.16
2022-08-22T23:22:39.009Z,15.99
2022-08-22T23:28:10.820Z,15.93
2022-08-22T23:33:42.494Z,15.90
2022-08-22T23:44:46.874Z,15.84
2022-08-22T23:55:50.310Z,15.46
